createdAt,value
2024-05-09T00:04:24.495Z,386
2024-05-09T00:24:24.396Z,394
2024-05-09T00:44:24.467Z,383
2024-05-09T01:24:23.825Z,379
2024-05-09T01:44:24.353Z,391
2024-05-09T02:04:24.339Z,399
2024-05-09T02:24:24.249Z,383
2024-05-09T02:44:24.288Z,393
2024-05-09T03:04:24.228Z,391
2024-05-09T03:24:24.192Z,394
2024-05-09T03:44:24.219Z,389
2024-05-09T04:04:24.159Z,378
2024-05-09T04:24:24.127Z,393
2024-05-09T04:44:24.135Z,385
2024-05-09T05:04:24.095Z,387
2024-05-09T05:24:23.869Z,394
2024-05-09T06:24:23.511Z,400
2024-05-09T06:44:24.001Z,394
2024-05-09T07:04:24.002Z,398
2024-05-09T07:24:23.949Z,400
2024-05-09T07:44:23.958Z,401
2024-05-09T08:04:26.069Z,404
2024-05-09T08:24:23.865Z,404
2024-05-09T08:44:23.667Z,373
2024-05-09T09:04:23.690Z,386
2024-05-09T09:24:23.774Z,384
2024-05-09T09:44:23.533Z,376
2024-05-09T10:04:23.782Z,364
2024-05-09T10:24:23.208Z,380
2024-05-09T11:04:23.703Z,360
2024-05-09T11:24:23.398Z,348
2024-05-09T11:44:23.572Z,365
2024-05-09T12:04:23.596Z,369
2024-05-09T12:24:23.511Z,374
2024-05-09T12:44:23.502Z,379
2024-05-09T13:04:23.559Z,369
2024-05-09T13:24:23.433Z,359
2024-05-09T13:44:22.919Z,364
2024-05-09T14:44:23.138Z,359
2024-05-09T15:04:23.392Z,366
2024-05-09T15:24:23.256Z,380
2024-05-09T15:44:23.223Z,385
2024-05-09T16:04:23.282Z,385
2024-05-09T16:44:23.139Z,384
2024-05-09T17:04:23.199Z,380
2024-05-09T17:24:23.068Z,386
2024-05-09T17:44:30.056Z,372
2024-05-09T18:04:23.078Z,384
2024-05-09T18:24:22.990Z,376
2024-05-09T18:44:22.781Z,389
2024-05-09T19:04:23.064Z,392
2024-05-09T19:24:22.417Z,387
2024-05-09T19:44:22.683Z,383
2024-05-09T20:04:22.982Z,381
2024-05-09T20:24:22.828Z,394
2024-05-09T20:44:22.809Z,383
2024-05-09T21:04:22.428Z,383
2024-05-09T21:24:22.763Z,385
2024-05-09T21:44:22.724Z,376
2024-05-09T22:04:22.804Z,373
2024-05-09T22:24:22.674Z,378
2024-05-09T22:44:22.658Z,377
2024-05-09T23:04:22.466Z,376
2024-05-09T23:24:22.594Z,384
2024-05-09T23:44:22.396Z,379
